• Join FlightAware (Why Join?)
  • Login
  • US Flag 
04:48PM EST


 

Airport Tracker/Info


-or-


 

Live Flight TrackerFlight Track Log ✈ QXE2450 ✈ 09-May-2013 ✈ KPDX - CYVR

Flight Track Log - Related Links

Times and Time Zones

All times are in EDT time to prevent confusion due to time zone crossing. See the QXE2450 flight status page for this flight to view local times or setup timezone preferences in your user account.

Time Position Orientation Groundspeed Altitude Reporting Facility
EDT Latitude Longitude Course Direction KTS MPH feet Rate Location/Type
12:34PM 45.5967 -122.6000 354° North 124 143 800  Level Seattle Center
12:35PM 45.6272 -122.6119 345° North 194 223 1,800 1,380 Climbing Seattle Center
12:36PM 45.6708 -122.6744 315° West 219 252 3,500 2,040 Climbing Seattle Center
12:36PM 45.7036 -122.6797 354° North 243 280 4,700 2,160 Climbing Seattle Center
12:37PM 45.7339 -122.6625 22° Northeast 243 280 5,700 1,800 Climbing Seattle Center
12:38PM 45.7992 -122.6375 15° North 250 288 7,500 1,860 Climbing Seattle Center
12:39PM 45.8875 -122.5944 19° North 278 320 9,500 1,680 Climbing Seattle Center
12:40PM 46.0788 -122.6721 354° North  Level Estimated
12:40PM 45.9669 -122.5664 14° North 292 336 11,300  Level Seattle Center
12:41PM 46.0467 -122.5394 13° North 295 339 13,000 1,680 Climbing Seattle Center
12:42PM 46.1281 -122.5294 North 293 337 14,800 1,680 Climbing Seattle Center
12:43PM 46.2050 -122.5194 North 290 334 16,500 1,440 Climbing Seattle Center
12:44PM 46.2814 -122.5083 North 280 322 17,800 1,140 Climbing Seattle Center
12:45PM 46.3583 -122.4919 North 282 325 18,900 960 Climbing Seattle Center
12:46PM 46.4589 -122.4739 North 305 351 19,800 840 Climbing Seattle Center
12:47PM 46.5456 -122.4611 North 314 361 20,700 900 Climbing Seattle Center
12:48PM 46.6319 -122.4472 North 315 362 21,700 600 Climbing Seattle Center
12:49PM 46.7200 -122.4333 North 319 367 22,000 120 Climbing Seattle Center
12:50PM 46.8128 -122.4150 North 335 386 22,000  Level Seattle Center
12:51PM 46.9100 -122.4003 North 350 403 22,000  Level Seattle Center
12:52PM 47.0075 -122.3833 North 355 409 22,000  Level Seattle Center
12:53PM 47.1031 -122.3669 North 353 406 22,000  Level Seattle Center
12:54PM 47.2186 -122.3467 North 353 406 22,000  Level Seattle Center
12:55PM 47.3156 -122.3303 North 355 409 22,000  Level Seattle Center
12:56PM 47.4114 -122.3147 North 353 406 22,000  Level Seattle Center
12:57PM 47.5081 -122.3033 North 354 407 22,000  Level Seattle Center
12:58PM 47.6036 -122.2967 North 353 406 22,000  Level Seattle Center
12:59PM 47.7181 -122.2903 North 358 412 22,000  Level Seattle Center
01:00PM 47.8142 -122.2839 North 354 407 22,000  Level Seattle Center
01:01PM 47.9103 -122.2781 North 352 405 22,000  Level Seattle Center
01:03PM 48.0061 -122.3006 351° North 353 406 22,000 -300 Level Seattle Center
01:04PM 48.1011 -122.3311 348° North 355 409 21,500 -1,140 Descending Seattle Center
01:05PM 48.1956 -122.3586 349° North 353 406 19,800 -1,860 Descending Seattle Center
01:06PM 48.3122 -122.3914 349° North 358 412 17,800 -1,920 Descending Seattle Center
01:07PM 48.4111 -122.4197 349° North 367 422 16,000 -1,680 Descending Seattle Center
01:08PM 48.5058 -122.4481 349° North 355 409 14,400 -1,620 Descending Seattle Center
01:09PM 48.5975 -122.4747 349° North 344 396 12,800 -1,500 Descending Seattle Center
01:10PM 48.6786 -122.4997 348° North 314 361 11,400 -1,320 Descending Seattle Center
01:10PM 48.7000 -122.5167 332° Northwest 290 334 11,000 -1,140 Descending Vancouver Center
01:11PM 48.7333 -122.5833 307° West 250 288 9,900 -1,320 Descending Vancouver Center
01:12PM 48.7833 -122.6667 312° West 240 276 8,400 -960 Descending Vancouver Center
01:13PM 48.8167 -122.7333 307° West 240 276 8,000 -240 Descending Vancouver Center
01:14PM 48.8500 -122.8333 297° West 230 265 8,000  Level Vancouver Center
01:15PM 48.9000 -122.9167 312° West 230 265 8,000 -540 Level Vancouver Center
01:16PM 48.9333 -122.9833 307° West 220 253 7,000 -1,200 Descending Vancouver Center
01:17PM 48.9833 -122.9833 360° North 220 253 5,600 -1,380 Descending Vancouver Center
01:18PM 49.0333 -122.9667 12° North 220 253 4,300 -1,260 Descending Vancouver Center
01:19PM 49.0833 -122.9333 24° Northeast 190 219 3,100 -900 Descending Vancouver Center
01:20PM 49.1333 -122.9333 360° North 180 207 2,600 -540 Descending Vancouver Center
01:21PM 49.1667 -122.9833 316° Northwest 170 196 2,100 -540 Descending Vancouver Center